• Join FlightAware (Why Join?)
  • Login
  • US Flag 
09:19PM EDT


 

Airport Tracker/Info


-or-


 

Live Flight TrackerFlight Track Log ✈ N612TX ✈ 04-Oct-2013 ✈ KHVC - KSUE

Flight Track Log - Related Links

Times and Time Zones

All times are in EDT time to prevent confusion due to time zone crossing. See the N612TX flight status page for this flight to view local times or setup timezone preferences in your user account.

Time Position Orientation Groundspeed Altitude Reporting Facility
EDT Latitude Longitude Course Direction KTS MPH feet Rate Location/Type
02:07PM 36.9358 -87.4733 27° Northeast 164 189 4,700  Level Memphis Center
02:07PM 36.9336 -87.4708 138° Southeast 261 300 4,700 1,260 Level Memphis Center
02:08PM 36.9772 -87.4642 North 159 183 6,000 1,260 Climbing Memphis Center
02:09PM 37.0250 -87.4519 12° North 176 203 7,300 420 Climbing Memphis Center
02:10PM 37.0833 -87.4497 North 195 224 6,900 -300 Descending Memphis Center
02:10PM 37.0894 -87.4497 360° North 254 292 7,000  Climbing Memphis Center
02:11PM 37.1542 -87.4497 360° North 269 310 6,900 540 Descending Memphis Center
02:12PM 37.2186 -87.4500 360° North 255 293 8,100 1,200 Climbing Memphis Center
02:13PM 37.3083 -87.4489 North 219 252 9,800 1,200 Climbing Indianapolis Center
02:14PM 37.3592 -87.4472 North 206 237 11,000 1,080 Climbing Indianapolis Center
02:15PM 37.4142 -87.4492 358° North 199 229 12,100 960 Climbing Indianapolis Center
02:16PM 37.4847 -87.4469 North 213 245 13,000 840 Climbing Indianapolis Center
02:17PM 37.5481 -87.4472 360° North 223 257 13,900 780 Climbing Indianapolis Center
02:18PM 37.6097 -87.4472 360° North 220 253 14,700 720 Climbing Indianapolis Center
02:19PM 37.6711 -87.4458 North 220 253 15,500 780 Climbing Indianapolis Center
02:20PM 37.7331 -87.4467 359° North 220 253 16,400 720 Climbing Indianapolis Center
02:21PM 37.7992 -87.4461 360° North 216 249 17,100 720 Climbing Indianapolis Center
02:22PM 37.8614 -87.4475 359° North 219 252 17,900 960 Climbing Indianapolis Center
02:23PM 37.9189 -87.4444 North 209 241 19,200 840 Climbing Indianapolis Center
02:24PM 37.9739 -87.4453 359° North 199 229 19,700 420 Climbing Indianapolis Center
02:25PM 38.0356 -87.4456 360° North 217 250 20,100 420 Climbing Indianapolis Center
02:27PM 38.1006 -87.4458 360° North 229 264 20,600 480 Climbing Indianapolis Center
02:28PM 38.1658 -87.4450 North 232 267 21,100 540 Climbing Indianapolis Center
02:29PM 38.2419 -87.4456 360° North 227 261 21,800 480 Climbing Indianapolis Center
02:30PM 38.3056 -87.4456 360° North 225 259 22,200 300 Climbing Indianapolis Center
02:31PM 38.3708 -87.4447 North 231 266 22,500 300 Climbing Indianapolis Center
02:32PM 38.4358 -87.4447 360° North 232 267 22,900 300 Climbing Indianapolis Center
02:33PM 38.5014 -87.4442 360° North 232 267 23,200 240 Climbing Indianapolis Center
02:34PM 38.5664 -87.4450 359° North 232 267 23,400 240 Climbing Indianapolis Center
02:35PM 38.6319 -87.4439 North 233 268 23,800 240 Climbing Indianapolis Center
02:36PM 38.6967 -87.4442 360° North 231 266 24,000 60 Climbing Indianapolis Center
02:37PM 38.7775 -87.4431 North 241 277 24,000  Level Indianapolis Center
02:38PM 38.8478 -87.4436 360° North 249 287 24,000  Level Indianapolis Center
02:39PM 38.9192 -87.4428 North 253 291 24,000  Level Indianapolis Center
02:40PM 38.9906 -87.4425 360° North 254 292 24,000  Level Indianapolis Center
02:41PM 39.0617 -87.4431 360° North 252 290 24,000  Level Indianapolis Center
02:42PM 39.1342 -87.4428 360° North 254 292 24,000  Level Indianapolis Center
02:43PM 39.2058 -87.4419 North 256 295 24,000  Level Indianapolis Center
02:44PM 39.2764 -87.4417 360° North 255 293 24,000  Level Indianapolis Center
02:45PM 39.3608 -87.4414 360° North 252 290 24,000  Level Indianapolis Center
02:46PM 39.4322 -87.4417 360° North 255 293 24,000  Level Indianapolis Center
02:47PM 39.5031 -87.4408 North 255 293 24,000  Level Indianapolis Center
02:48PM 39.5728 -87.4411 360° North 253 291 24,000  Level Indianapolis Center
02:49PM 39.6419 -87.4406 360° North 250 288 24,000  Level Indianapolis Center
02:50PM 39.7108 -87.4403 360° North 249 287 24,000  Level Indianapolis Center
02:51PM 39.7972 -87.4400 360° North 257 296 24,000  Level Indianapolis Center
02:52PM 39.8675 -87.4397 360° North 255 293 24,000  Level Indianapolis Center
02:53PM 39.9392 -87.4397 360° North 256 295 24,000  Level Indianapolis Center
02:54PM 40.0122 -87.4392 360° North 259 298 24,000  Level Indianapolis Center
02:55PM 40.0847 -87.4394 360° North 261 300 24,000  Level Indianapolis Center
02:57PM 40.1561 -87.4389 360° North 259 298 24,000  Level Indianapolis Center
02:58PM 40.2408 -87.4397 360° North 256 295 24,000  Level Chicago Center
02:59PM 40.3119 -87.4406 359° North 256 295 24,000  Level Chicago Center
03:00PM 40.3850 -87.4403 360° North 260 299 24,000  Level Chicago Center
03:01PM 40.4631 -87.4386 North 258 297 24,000  Level Chicago Center
03:02PM 40.5342 -87.4375 North 258 297 24,000  Level Chicago Center
03:03PM 40.6197 -87.4375 360° North 257 296 24,000  Level Chicago Center
03:04PM 40.6911 -87.4375 360° North 258 297 24,000  Level Chicago Center
03:05PM 40.7636 -87.4378 360° North 261 300 24,000  Level Chicago Center
03:06PM 40.8347 -87.4372 360° North 259 298 24,000  Level Chicago Center
03:07PM 40.9061 -87.4367 360° North 259 298 24,000  Level Chicago Center
03:08PM 40.9919 -87.4356 North 260 299 24,000  Level Chicago Center
03:09PM 41.0639 -87.4361 360° North 259 298 24,000  Level Chicago Center
03:10PM 41.1364 -87.4347 North 261 300 24,000  Level Chicago Center
03:11PM 41.2078 -87.4350 360° North 260 299 24,000  Level Chicago Center
03:12PM 41.2794 -87.4350 360° North 259 298 24,000  Level Chicago Center
03:13PM 41.3650 -87.4353 360° North 259 298 24,000  Level Chicago Center
03:14PM 41.4358 -87.4344 North 257 296 24,000  Level Chicago Center
03:15PM 41.5067 -87.4344 360° North 258 297 24,000  Level Chicago Center
03:16PM 41.5767 -87.4344 360° North 253 291 24,000  Level Chicago Center
03:17PM 41.6622 -87.4339 360° North 259 298 24,000  Level Chicago Center
03:18PM 41.7333 -87.4339 360° North 258 297 24,000  Level Chicago Center
03:19PM 41.8036 -87.4331 North 256 295 24,000  Level Chicago Center
03:20PM 41.8731 -87.4317 North 253 291 24,000  Level Chicago Center
03:21PM 41.9425 -87.4317 360° North 252 290 24,000  Level Chicago Center
03:22PM 42.0242 -87.4322 360° North 246 283 24,000  Level Chicago Center
03:24PM 42.0911 -87.4319 360° North 241 277 24,000  Level Chicago Center
03:25PM 42.1583 -87.4317 360° North 242 278 24,000  Level Chicago Center
03:26PM 42.2253 -87.4314 360° North 242 278 24,000  Level Chicago Center
03:27PM 42.2933 -87.4306 North 246 283 24,000  Level Chicago Center
03:28PM 42.3739 -87.4308 360° North 243 280 24,000  Level Chicago Center
03:29PM 42.4408 -87.4311 360° North 242 278 24,000  Level Chicago Center
03:30PM 42.5078 -87.4297 North 242 278 24,000  Level Chicago Center
03:31PM 42.5750 -87.4306 359° North 242 278 24,000  Level Chicago Center
03:32PM 42.6531 -87.4297 360° North 243 280 24,000  Level Chicago Center
03:33PM 42.7203 -87.4306 359° North 243 280 24,000  Level Chicago Center
03:34PM 42.7881 -87.4286 North 245 282 24,000  Level Chicago Center
03:35PM 42.8539 -87.4289 360° North 238 274 24,000  Level Chicago Center
03:36PM 42.9206 -87.4286 360° North 239 275 24,000  Level Chicago Center
03:37PM 42.9867 -87.4289 360° North 238 274 24,000  Level Chicago Center
03:38PM 43.0636 -87.4492 349° North 233 268 24,000  Level Chicago Center
03:39PM 43.1292 -87.4606 353° North 236 272 24,000  Level Chicago Center
03:40PM 43.1958 -87.4714 353° North 239 275 24,000  Level Chicago Center
03:41PM 43.2622 -87.4803 354° North 241 277 24,000  Level Chicago Center
03:42PM 43.3286 -87.4814 359° North 241 277 24,000  Level Chicago Center
03:43PM 43.4083 -87.4831 359° North 239 275 24,000 -120 Level Chicago Center
03:44PM 43.4714 -87.4911 355° North 231 266 23,800 -480 Descending Chicago Center
03:45PM 43.5406 -87.4900 North 247 284 23,100 -840 Descending Chicago Center
03:46PM 43.6194 -87.4853 North 276 318 22,100 -1,020 Descending Chicago Center
03:47PM 43.7008 -87.4814 North 290 334 21,100 -1,140 Descending Chicago Center
03:48PM 43.8008 -87.4769 North 300 345 19,800 -1,260 Descending Chicago Center
03:49PM 43.8864 -87.4733 North 307 353 18,500 -1,260 Descending Chicago Center
03:50PM 43.9728 -87.4678 North 311 358 17,200 -1,380 Descending Chicago Center
03:51PM 44.0581 -87.4633 North 309 356 15,700 -1,440 Descending Chicago Center
03:52PM 44.1411 -87.4608 North 301 346 14,200 -1,680 Descending Chicago Center
03:54PM 44.2339 -87.4703 356° North 280 322 12,300 -1,680 Descending Chicago Center
03:55PM 44.3022 -87.4761 357° North 252 290 10,800 -1,500 Descending Chicago Center
03:56PM 44.3689 -87.4831 356° North 243 280 9,300 -1,500 Descending Chicago Center
03:57PM 44.4317 -87.4894 356° North 231 266 7,800 -1,500 Descending Chicago Center
03:58PM 44.4992 -87.4956 356° North 227 261 6,200 -1,320 Descending Chicago Center
03:59PM 44.5686 -87.5017 356° North 217 250 4,900 -960 Descending Minneapolis Center
04:00PM 44.6133 -87.4881 12° North 199 229 4,100 -540 Descending Minneapolis Center
04:01PM 44.5847 -87.4556 141° Southeast 171 197 3,900 -540 Descending Minneapolis Center
04:02PM 44.5386 -87.4517 177° South 162 186 3,000 -540 Descending Minneapolis Center
04:03PM 44.4919 -87.4458 175° South 163 188 2,900 -60 Descending Minneapolis Center
04:04PM 44.5178 -87.4958 306° West 161 185 2,900  Level Minneapolis Center
04:05PM 44.5608 -87.5014 355° North 156 180 2,900  Level Minneapolis Center
04:06PM 44.6011 -87.5042 357° North 152 175 2,900 -300 Level Minneapolis Center
04:07PM 44.6436 -87.4867 16° North 156 180 2,400 -300 Descending Minneapolis Center
04:08PM 44.6894 -87.4714 13° North 163 188 2,300 -60 Descending Minneapolis Center
04:09PM 44.7250 -87.4619 11° North 155 178 2,300  Level Minneapolis Center
04:10PM 44.7522 -87.4511 16° North 133 153 2,300 -360 Level Minneapolis Center
04:11PM 44.7869 -87.4403 12° North 117 135 1,600 -660 Descending Minneapolis Center
04:12PM 44.8178 -87.4308 12° North 113 130 1,000 -600 Descending Minneapolis Center